createdAt,value
2018-06-04T00:01:58.117Z,23.36
2018-06-04T00:04:27.148Z,23.33
2018-06-04T00:06:56.758Z,23.25
2018-06-04T00:09:25.794Z,23.20
2018-06-04T00:11:54.836Z,23.12
2018-06-04T00:14:24.243Z,23.05
2018-06-04T00:16:53.260Z,22.98
2018-06-04T00:19:22.415Z,22.93
2018-06-04T00:21:51.427Z,22.91
2018-06-04T00:24:20.434Z,22.87
2018-06-04T00:26:49.601Z,22.85
2018-06-04T00:29:18.736Z,22.83
2018-06-04T00:31:47.708Z,22.81
2018-06-04T00:34:16.887Z,22.78
2018-06-04T00:36:46.466Z,22.77
2018-06-04T00:39:15.416Z,22.72
2018-06-04T00:41:44.443Z,22.65
2018-06-04T00:44:13.747Z,22.51
2018-06-04T00:46:42.841Z,22.46
2018-06-04T00:49:11.832Z,22.47
2018-06-04T00:51:40.904Z,22.41
2018-06-04T00:54:10.314Z,22.32
2018-06-04T00:56:39.351Z,22.32
2018-06-04T00:59:08.755Z,22.29
2018-06-04T01:01:37.996Z,22.32
2018-06-04T01:04:07.030Z,22.35
2018-06-04T01:06:36.388Z,22.37
2018-06-04T01:09:07.775Z,22.43
2018-06-04T01:11:37.358Z,22.45
2018-06-04T01:14:06.430Z,22.45
2018-06-04T01:16:35.579Z,22.45
2018-06-04T01:19:04.935Z,22.41
2018-06-04T01:21:33.935Z,22.40
2018-06-04T01:24:03.030Z,22.38
2018-06-04T01:26:32.353Z,22.36
2018-06-04T01:29:01.441Z,22.30
2018-06-04T01:31:30.536Z,22.30
2018-06-04T01:33:59.705Z,22.25
2018-06-04T01:36:28.940Z,22.22
2018-06-04T01:38:57.968Z,22.15
2018-06-04T01:41:27.157Z,22.10
2018-06-04T01:43:56.164Z,22.09
2018-06-04T01:46:25.291Z,22.11
2018-06-04T01:48:54.471Z,22.08
2018-06-04T01:51:23.578Z,22.06
2018-06-04T01:53:52.796Z,22.10
2018-06-04T01:56:22.124Z,22.09
2018-06-04T01:58:51.175Z,22.06
2018-06-04T02:01:20.397Z,22.05
2018-06-04T02:06:17.915Z,21.95
2018-06-04T02:08:47.027Z,22.06
2018-06-04T02:11:16.319Z,22.14
2018-06-04T02:13:45.432Z,22.16
2018-06-04T02:16:14.503Z,22.17
2018-06-04T02:18:44.177Z,22.18
2018-06-04T02:21:13.260Z,22.14
2018-06-04T02:23:42.279Z,22.05
2018-06-04T02:26:11.576Z,22.01
2018-06-04T02:28:40.691Z,21.93
2018-06-04T02:32:12.507Z,21.88
2018-06-04T02:34:41.432Z,21.78
2018-06-04T02:37:10.404Z,21.74
2018-06-04T02:39:40.197Z,21.72
2018-06-04T02:42:09.292Z,21.71
2018-06-04T02:44:38.385Z,21.73
2018-06-04T02:47:07.641Z,21.77
2018-06-04T02:49:36.735Z,21.79
2018-06-04T02:52:06.019Z,21.79
2018-06-04T02:54:35.163Z,21.79
2018-06-04T02:57:04.326Z,21.77
2018-06-04T02:59:33.584Z,21.76
2018-06-04T03:02:02.511Z,21.74
2018-06-04T03:04:31.596Z,21.78
2018-06-04T03:07:00.573Z,21.78
2018-06-04T03:09:29.939Z,21.83
2018-06-04T03:11:58.910Z,21.87
2018-06-04T03:14:27.872Z,21.98
2018-06-04T03:16:56.963Z,22.04
2018-06-04T03:19:25.951Z,22.08
2018-06-04T03:21:55.070Z,22.11
2018-06-04T03:24:24.699Z,22.10
2018-06-04T03:26:53.609Z,22.15
2018-06-04T03:29:22.388Z,22.20
2018-06-04T03:31:51.454Z,22.22
2018-06-04T03:34:20.444Z,22.28
2018-06-04T03:36:49.515Z,22.38
2018-06-04T03:39:18.521Z,22.40
2018-06-04T03:41:47.526Z,22.52
2018-06-04T03:44:16.532Z,22.71
2018-06-04T03:46:45.704Z,22.85
2018-06-04T03:49:14.666Z,22.99
2018-06-04T03:51:43.811Z,23.16
2018-06-04T03:54:13.402Z,23.30
2018-06-04T03:56:42.291Z,23.32
2018-06-04T04:05:56.128Z,23.64
2018-06-04T04:08:25.291Z,23.90
2018-06-04T04:10:54.184Z,23.92
2018-06-04T04:13:23.740Z,24.11
2018-06-04T04:15:52.658Z,24.30
2018-06-04T04:18:21.545Z,24.53
2018-06-04T04:20:50.708Z,24.50
2018-06-04T04:23:19.703Z,24.62
2018-06-04T04:25:48.632Z,24.88
2018-06-04T04:28:17.837Z,25.01
2018-06-04T04:30:46.776Z,25.09
2018-06-04T04:33:15.789Z,25.33
2018-06-04T04:35:45.176Z,25.66
2018-06-04T04:38:14.099Z,25.71
2018-06-04T04:40:43.249Z,25.98
2018-06-04T04:43:12.314Z,25.98
2018-06-04T04:45:41.516Z,26.25
2018-06-04T04:48:10.480Z,26.50
2018-06-04T04:50:39.701Z,26.77
2018-06-04T04:53:08.691Z,27.00
2018-06-04T04:55:37.774Z,27.37
2018-06-04T04:58:07.408Z,27.46
2018-06-04T05:00:36.448Z,27.55
2018-06-04T05:03:05.543Z,27.55
2018-06-04T05:05:34.819Z,27.91
2018-06-04T05:08:03.911Z,28.22
2018-06-04T05:10:32.929Z,28.21
2018-06-04T05:13:02.121Z,28.40
2018-06-04T05:15:31.119Z,28.74
2018-06-04T05:18:00.108Z,28.74
2018-06-04T05:20:29.650Z,28.97
2018-06-04T05:22:58.628Z,29.19
2018-06-04T05:25:27.676Z,29.15
2018-06-04T05:27:56.859Z,29.51
2018-06-04T05:30:25.819Z,29.58
2018-06-04T05:32:54.716Z,29.43
2018-06-04T05:35:24.113Z,29.27
2018-06-04T05:37:53.410Z,29.43
2018-06-04T05:40:22.499Z,29.27
2018-06-04T05:42:51.901Z,29.35
2018-06-04T05:45:20.843Z,29.30
2018-06-04T05:47:49.956Z,29.45
2018-06-04T05:50:19.603Z,28.91
2018-06-04T05:52:48.575Z,29.01
2018-06-04T05:55:17.771Z,29.42
2018-06-04T05:57:46.971Z,29.38
2018-06-04T06:00:16.014Z,29.53
2018-06-04T06:02:45.072Z,29.81
2018-06-04T06:05:14.152Z,29.54
2018-06-04T06:07:43.120Z,29.28
2018-06-04T06:10:12.180Z,29.19
2018-06-04T06:12:41.630Z,29.19
2018-06-04T06:15:10.457Z,28.89
2018-06-04T06:17:39.667Z,28.85
2018-06-04T06:20:08.648Z,28.69
2018-06-04T06:22:37.581Z,28.03
2018-06-04T06:25:06.609Z,27.71
2018-06-04T06:27:35.731Z,27.74
2018-06-04T06:30:05.074Z,27.76
2018-06-04T06:32:33.949Z,27.92
2018-06-04T06:35:03.444Z,27.79
2018-06-04T06:37:32.525Z,27.56
2018-06-04T06:40:01.649Z,27.53
2018-06-04T06:42:30.956Z,27.52
2018-06-04T06:45:00.044Z,27.31
2018-06-04T06:47:29.056Z,27.18
2018-06-04T06:49:58.177Z,27.20
2018-06-04T06:52:27.219Z,27.23
2018-06-04T06:54:56.269Z,27.14
2018-06-04T06:57:25.324Z,27.04
2018-06-04T06:59:55.293Z,27.00
2018-06-04T07:02:24.467Z,27.13
2018-06-04T07:04:53.971Z,27.16
2018-06-04T07:07:22.965Z,27.18
2018-06-04T07:09:51.995Z,27.29
2018-06-04T07:12:21.490Z,27.36
2018-06-04T07:14:50.370Z,27.60
2018-06-04T07:17:19.347Z,27.86
2018-06-04T07:19:48.793Z,27.58
2018-06-04T07:22:17.767Z,27.50
2018-06-04T07:24:46.913Z,27.59
2018-06-04T07:27:16.457Z,27.57
2018-06-04T07:29:45.412Z,27.75
2018-06-04T07:32:14.604Z,27.93
2018-06-04T07:34:43.648Z,28.09
2018-06-04T07:37:12.641Z,28.00
2018-06-04T07:39:41.561Z,28.04
2018-06-04T07:42:10.595Z,28.04
2018-06-04T07:44:39.593Z,28.23
2018-06-04T07:47:08.696Z,28.32
2018-06-04T07:49:37.861Z,28.33
2018-06-04T07:52:06.859Z,28.30
2018-06-04T07:54:35.950Z,28.35
2018-06-04T07:57:05.515Z,28.39
2018-06-04T07:59:34.669Z,28.31
2018-06-04T08:02:03.472Z,28.35
2018-06-04T08:04:32.565Z,28.39
2018-06-04T08:07:01.588Z,28.50
2018-06-04T08:09:30.693Z,28.48
2018-06-04T08:11:59.767Z,28.61
2018-06-04T08:14:28.784Z,28.70
2018-06-04T08:16:57.681Z,28.77
2018-06-04T08:19:27.002Z,28.78
2018-06-04T08:21:55.935Z,28.79
2018-06-04T08:24:24.830Z,28.90
2018-06-04T08:26:54.148Z,28.79
2018-06-04T08:29:23.221Z,28.85
2018-06-04T08:31:52.389Z,28.87
2018-06-04T08:34:21.490Z,28.92
2018-06-04T08:36:50.515Z,28.98
2018-06-04T08:39:19.677Z,28.97
2018-06-04T08:42:52.170Z,29.15
2018-06-04T08:45:21.309Z,29.21
2018-06-04T08:47:50.397Z,29.34
2018-06-04T08:50:19.863Z,29.46
2018-06-04T08:52:48.984Z,29.24
2018-06-04T08:55:17.960Z,29.33
2018-06-04T08:57:47.519Z,29.54
2018-06-04T09:00:16.363Z,29.68
2018-06-04T09:02:45.270Z,29.83
2018-06-04T09:05:14.619Z,29.84
2018-06-04T09:07:43.754Z,29.82
2018-06-04T09:10:12.848Z,29.83
2018-06-04T09:12:42.106Z,29.96
2018-06-04T09:15:11.145Z,29.89
2018-06-04T09:17:40.075Z,30.02
2018-06-04T09:20:09.530Z,30.18
2018-06-04T09:22:38.680Z,30.06
2018-06-04T09:25:07.871Z,30.04
2018-06-04T09:27:36.954Z,30.06
2018-06-04T09:30:05.959Z,29.98
2018-06-04T09:32:35.028Z,30.02
2018-06-04T09:35:04.095Z,30.19
2018-06-04T09:37:32.980Z,30.32
2018-06-04T09:40:02.160Z,30.46
2018-06-04T09:42:31.339Z,30.42
2018-06-04T09:45:00.309Z,30.41
2018-06-04T09:47:29.486Z,30.38
2018-06-04T09:49:58.525Z,30.51
2018-06-04T09:52:27.636Z,30.40
2018-06-04T09:54:56.713Z,30.56
2018-06-04T09:57:25.976Z,30.55
2018-06-04T09:59:55.094Z,30.74
2018-06-04T10:02:24.113Z,30.66
2018-06-04T10:04:53.131Z,30.74
2018-06-04T10:07:22.089Z,30.80
2018-06-04T10:09:51.940Z,30.71
2018-06-04T10:12:21.039Z,30.74
2018-06-04T10:14:49.994Z,30.81
2018-06-04T10:17:19.042Z,30.91
2018-06-04T10:19:48.461Z,31.06
2018-06-04T10:22:17.549Z,31.21
2018-06-04T10:24:46.647Z,31.36
2018-06-04T10:27:16.113Z,31.34
2018-06-04T10:29:45.410Z,31.37
2018-06-04T10:32:14.545Z,31.47
2018-06-04T10:34:43.951Z,31.38
2018-06-04T10:37:12.925Z,31.39
2018-06-04T10:39:42.047Z,31.56
2018-06-04T10:42:11.694Z,31.44
2018-06-04T10:44:40.876Z,31.58
2018-06-04T10:47:09.885Z,31.77
2018-06-04T10:49:39.271Z,31.93
2018-06-04T10:52:08.324Z,32.38
2018-06-04T10:54:37.391Z,32.62
2018-06-04T10:57:06.423Z,32.57
2018-06-04T10:59:36.240Z,32.70
2018-06-04T11:02:05.573Z,32.74
2018-06-04T11:04:34.567Z,32.74
2018-06-04T11:07:04.148Z,33.24
2018-06-04T11:09:33.106Z,33.43
2018-06-04T11:12:02.405Z,33.52
2018-06-04T11:14:31.568Z,33.34
2018-06-04T11:17:00.652Z,33.11
2018-06-04T11:19:29.784Z,33.18
2018-06-04T11:21:58.809Z,33.25
2018-06-04T11:24:27.709Z,33.20
2018-06-04T11:26:57.395Z,33.11
2018-06-04T11:29:26.300Z,32.92
2018-06-04T11:31:55.401Z,33.01
2018-06-04T11:34:24.544Z,32.78
2018-06-04T11:36:53.826Z,32.53
2018-06-04T11:39:22.829Z,32.61
2018-06-04T11:41:52.279Z,33.05
2018-06-04T11:44:21.291Z,33.18
2018-06-04T11:46:50.335Z,33.23
2018-06-04T11:49:19.171Z,33.20
2018-06-04T11:51:48.158Z,33.10
2018-06-04T11:54:17.439Z,33.21
2018-06-04T11:56:46.813Z,33.45
2018-06-04T11:59:15.927Z,33.74
2018-06-04T12:01:45.053Z,33.53
2018-06-04T12:04:14.628Z,33.91
2018-06-04T12:06:43.844Z,34.05
2018-06-04T12:09:12.859Z,34.16
2018-06-04T12:11:42.499Z,33.88
2018-06-04T12:14:11.624Z,33.73
2018-06-04T12:16:40.661Z,33.53
2018-06-04T12:19:10.169Z,33.70
2018-06-04T12:21:39.223Z,33.79
2018-06-04T12:24:08.203Z,34.07
2018-06-04T12:26:37.620Z,34.45
2018-06-04T12:29:06.562Z,34.73
2018-06-04T12:31:35.518Z,34.62
2018-06-04T12:34:04.910Z,34.01
2018-06-04T12:36:33.763Z,33.64
2018-06-04T12:39:02.862Z,33.32
2018-06-04T12:41:32.062Z,33.17
2018-06-04T12:44:01.283Z,33.05
2018-06-04T12:46:30.333Z,32.97
2018-06-04T12:48:59.521Z,32.75
2018-06-04T12:51:28.514Z,32.70
2018-06-04T12:53:57.684Z,32.57
2018-06-04T12:56:26.987Z,32.17
2018-06-04T12:58:55.953Z,32.03
2018-06-04T13:01:25.126Z,31.86
2018-06-04T13:03:54.645Z,31.49
2018-06-04T13:06:23.644Z,31.27
2018-06-04T13:08:52.709Z,31.16
2018-06-04T13:11:21.830Z,31.02
2018-06-04T13:13:50.944Z,31.01
2018-06-04T13:16:20.079Z,31.02
2018-06-04T13:18:49.621Z,31.01
2018-06-04T13:21:18.574Z,31.03
2018-06-04T13:23:47.654Z,31.09
2018-06-04T13:26:16.786Z,31.14
2018-06-04T13:28:45.922Z,31.23
2018-06-04T13:31:15.077Z,31.37
2018-06-04T13:33:44.422Z,31.34
2018-06-04T13:36:13.492Z,31.34
2018-06-04T13:38:42.539Z,31.30
2018-06-04T13:41:11.482Z,31.22
2018-06-04T13:43:40.387Z,31.23
2018-06-04T13:46:09.527Z,31.28
2018-06-04T13:48:39.140Z,31.36
2018-06-04T13:51:08.148Z,31.46
2018-06-04T13:53:37.197Z,31.33
2018-06-04T13:56:06.655Z,31.31
2018-06-04T13:58:35.786Z,31.25
2018-06-04T14:01:04.845Z,31.30
2018-06-04T14:03:34.515Z,31.23
2018-06-04T14:06:03.547Z,31.26
2018-06-04T14:08:32.578Z,31.07
2018-06-04T14:11:02.206Z,31.07
2018-06-04T14:13:31.182Z,31.07
2018-06-04T14:16:00.214Z,31.06
2018-06-04T14:18:29.692Z,30.92
2018-06-04T14:20:58.714Z,30.52
2018-06-04T14:23:27.734Z,30.76
2018-06-04T14:25:57.160Z,30.68
2018-06-04T14:28:26.135Z,30.71
2018-06-04T14:30:55.216Z,30.58
2018-06-04T14:33:24.385Z,30.55
2018-06-04T14:35:53.457Z,30.66
2018-06-04T14:38:23.417Z,30.40
2018-06-04T14:40:52.832Z,30.22
2018-06-04T14:43:21.902Z,30.36
2018-06-04T14:45:50.965Z,30.26
2018-06-04T14:48:20.184Z,30.09
2018-06-04T14:50:49.292Z,30.27
2018-06-04T14:53:18.187Z,30.38
2018-06-04T14:55:47.213Z,30.44
2018-06-04T14:58:16.215Z,30.58
2018-06-04T15:00:45.183Z,30.66
2018-06-04T15:03:14.599Z,30.92
2018-06-04T15:05:43.608Z,31.05
2018-06-04T15:08:12.724Z,31.00
2018-06-04T15:10:42.058Z,30.98
2018-06-04T15:13:11.076Z,30.94
2018-06-04T15:15:40.138Z,30.99
2018-06-04T15:18:09.775Z,30.97
2018-06-04T15:20:38.762Z,30.93
2018-06-04T15:23:07.889Z,30.67
2018-06-04T15:25:37.019Z,30.33
2018-06-04T15:28:05.970Z,30.23
2018-06-04T15:30:35.064Z,30.15
2018-06-04T15:33:04.196Z,30.16
2018-06-04T15:35:33.290Z,30.21
2018-06-04T15:38:02.343Z,30.19
2018-06-04T15:40:31.464Z,30.34
2018-06-04T15:43:00.572Z,30.42
2018-06-04T15:45:29.723Z,30.40
2018-06-04T15:47:58.863Z,30.36
2018-06-04T15:50:27.820Z,30.46
2018-06-04T15:52:57.035Z,30.42
2018-06-04T15:55:26.153Z,30.24
2018-06-04T15:57:55.060Z,30.37
2018-06-04T16:00:24.003Z,30.49
2018-06-04T16:02:53.645Z,30.32
2018-06-04T16:05:22.600Z,30.26
2018-06-04T16:07:51.868Z,30.18
2018-06-04T16:10:21.024Z,30.09
2018-06-04T16:12:50.124Z,30.07
2018-06-04T16:15:19.132Z,30.09
2018-06-04T16:17:48.421Z,30.16
2018-06-04T16:20:17.380Z,30.20
2018-06-04T16:22:46.417Z,30.17
2018-06-04T16:25:15.888Z,30.14
2018-06-04T16:27:44.937Z,30.17
2018-06-04T16:36:59.344Z,30.03
2018-06-04T16:39:28.337Z,30.07
2018-06-04T16:41:57.406Z,30.05
2018-06-04T16:44:26.552Z,29.98
2018-06-04T16:46:55.528Z,29.90
2018-06-04T16:49:24.603Z,29.82
2018-06-04T16:51:53.923Z,29.71
2018-06-04T16:54:22.912Z,29.57
2018-06-04T16:56:51.862Z,29.45
2018-06-04T16:59:20.856Z,29.37
2018-06-04T17:01:49.977Z,29.21
2018-06-04T17:04:19.015Z,29.15
2018-06-04T17:06:48.127Z,29.10
2018-06-04T17:09:17.181Z,29.04
2018-06-04T17:11:46.043Z,28.97
2018-06-04T17:14:15.316Z,28.90
2018-06-04T17:16:44.267Z,28.85
2018-06-04T17:19:13.199Z,28.73
2018-06-04T17:21:42.307Z,28.66
2018-06-04T17:24:11.553Z,28.56
2018-06-04T17:26:40.727Z,28.48
2018-06-04T17:29:09.844Z,28.36
2018-06-04T17:31:39.039Z,28.23
2018-06-04T17:34:08.157Z,28.13
2018-06-04T17:36:37.790Z,27.99
2018-06-04T17:39:08.549Z,27.93
2018-06-04T17:41:38.012Z,27.85
2018-06-04T17:44:06.912Z,27.77
2018-06-04T17:46:35.902Z,27.67
2018-06-04T17:49:05.411Z,27.57
2018-06-04T17:51:34.459Z,27.49
2018-06-04T17:54:03.676Z,27.41
2018-06-04T17:56:32.998Z,27.34
2018-06-04T17:59:01.985Z,27.30
2018-06-04T18:01:31.124Z,27.22
2018-06-04T18:04:00.302Z,27.19
2018-06-04T18:06:29.322Z,27.09
2018-06-04T18:08:58.449Z,26.97
2018-06-04T18:11:27.739Z,26.85
2018-06-04T18:13:56.615Z,26.58
2018-06-04T18:16:25.726Z,26.57
2018-06-04T18:18:55.035Z,26.49
2018-06-04T18:21:23.947Z,26.50
2018-06-04T18:23:52.834Z,26.44
2018-06-04T18:26:22.092Z,26.36
2018-06-04T18:28:51.135Z,26.30
2018-06-04T18:31:20.202Z,26.25
2018-06-04T18:33:49.615Z,26.28
2018-06-04T18:36:18.684Z,26.30
2018-06-04T18:38:47.773Z,26.34
2018-06-04T18:41:16.782Z,26.23
2018-06-04T18:43:45.806Z,26.13
2018-06-04T18:46:14.900Z,26.15
2018-06-04T18:48:43.995Z,26.04
2018-06-04T18:51:13.126Z,26.02
2018-06-04T18:53:42.135Z,25.98
2018-06-04T18:56:11.617Z,26.06
2018-06-04T18:58:40.632Z,26.17
2018-06-04T19:01:09.639Z,26.15
2018-06-04T19:03:39.128Z,26.14
2018-06-04T19:06:08.090Z,26.11
2018-06-04T19:08:37.141Z,26.07
2018-06-04T19:11:06.203Z,26.05
2018-06-04T19:13:35.200Z,26.03
2018-06-04T19:16:04.276Z,26.06
2018-06-04T19:18:33.436Z,26.03
2018-06-04T19:21:02.556Z,26.01
2018-06-04T19:23:31.540Z,25.95
2018-06-04T19:26:00.601Z,25.86
2018-06-04T19:28:29.663Z,25.54
2018-06-04T19:30:58.560Z,25.26
2018-06-04T19:33:28.430Z,25.04
2018-06-04T19:35:57.360Z,24.92
2018-06-04T19:38:26.252Z,24.93
2018-06-04T19:40:56.124Z,25.04
2018-06-04T19:43:25.071Z,25.01
2018-06-04T19:45:54.198Z,24.97
2018-06-04T19:48:23.488Z,25.00
2018-06-04T19:50:52.467Z,25.04
2018-06-04T19:53:21.462Z,25.01
2018-06-04T19:55:50.641Z,25.01
2018-06-04T19:58:19.687Z,25.06
2018-06-04T20:00:48.712Z,25.05
2018-06-04T20:03:17.879Z,25.03
2018-06-04T20:05:46.872Z,25.13
2018-06-04T20:08:15.768Z,25.14
2018-06-04T20:10:44.778Z,25.19
2018-06-04T20:13:13.739Z,25.13
2018-06-04T20:15:42.717Z,25.13
2018-06-04T20:18:11.718Z,25.07
2018-06-04T20:20:40.684Z,24.98
2018-06-04T20:23:09.782Z,24.99
2018-06-04T20:25:38.954Z,24.98
2018-06-04T20:28:07.889Z,25.02
2018-06-04T20:30:36.732Z,25.21
2018-06-04T20:33:05.726Z,25.23
2018-06-04T20:35:34.850Z,25.13
2018-06-04T20:38:03.904Z,25.01
2018-06-04T20:40:34.472Z,24.92
2018-06-04T20:43:03.590Z,24.83
2018-06-04T20:45:32.559Z,24.70
2018-06-04T20:48:01.815Z,24.60
2018-06-04T20:50:30.874Z,24.47
2018-06-04T20:52:59.885Z,24.26
2018-06-04T20:55:29.051Z,24.20
2018-06-04T20:57:58.002Z,24.13
2018-06-04T21:00:26.838Z,24.05
2018-06-04T21:02:56.391Z,24.02
2018-06-04T21:05:25.318Z,23.88
2018-06-04T21:07:54.407Z,23.73
2018-06-04T21:10:23.611Z,23.50
2018-06-04T21:12:52.707Z,23.30
2018-06-04T21:15:21.809Z,23.39
2018-06-04T21:17:50.965Z,23.25
2018-06-04T21:20:19.967Z,23.17
2018-06-04T21:22:48.972Z,23.25
2018-06-04T21:25:18.310Z,23.11
2018-06-04T21:27:47.355Z,23.01
2018-06-04T21:30:16.459Z,23.08
2018-06-04T21:32:45.671Z,23.09
2018-06-04T21:35:14.745Z,23.11
2018-06-04T21:38:46.348Z,23.16
2018-06-04T21:41:15.406Z,23.13
2018-06-04T21:43:44.373Z,23.13
2018-06-04T21:46:13.498Z,23.16
2018-06-04T21:48:49.124Z,23.10
2018-06-04T21:51:18.594Z,23.07
2018-06-04T21:53:47.560Z,23.05
2018-06-04T21:56:16.578Z,23.08
2018-06-04T21:58:45.536Z,23.06
2018-06-04T22:01:14.733Z,23.04
2018-06-04T22:03:43.748Z,22.99
2018-06-04T22:06:13.321Z,22.96
2018-06-04T22:08:42.701Z,22.87
2018-06-04T22:11:11.884Z,22.86
2018-06-04T22:13:41.624Z,22.80
2018-06-04T22:16:10.634Z,22.73
2018-06-04T22:18:39.605Z,22.72
2018-06-04T22:21:09.316Z,22.70
2018-06-04T22:23:38.257Z,22.67
2018-06-04T22:26:07.504Z,22.51
2018-06-04T22:28:36.812Z,22.49
2018-06-04T22:31:05.886Z,22.41
2018-06-04T22:33:34.985Z,22.36
2018-06-04T22:36:03.988Z,22.28
2018-06-04T22:38:33.133Z,22.23
2018-06-04T22:41:02.233Z,22.19
2018-06-04T22:43:31.583Z,22.21
2018-06-04T22:46:00.531Z,22.18
2018-06-04T22:48:29.611Z,22.17
2018-06-04T22:50:58.802Z,22.16
2018-06-04T22:53:28.016Z,22.15
2018-06-04T22:55:57.088Z,22.07
2018-06-04T22:58:26.160Z,22.02
2018-06-04T23:00:55.254Z,22.00
2018-06-04T23:03:24.368Z,21.95
2018-06-04T23:05:54.007Z,21.92
2018-06-04T23:08:23.028Z,22.00
2018-06-04T23:10:52.110Z,21.93
2018-06-04T23:13:21.193Z,21.87
2018-06-04T23:15:50.287Z,21.75
2018-06-04T23:18:19.384Z,21.66
2018-06-04T23:20:48.633Z,21.68
2018-06-04T23:23:17.810Z,21.67
2018-06-04T23:25:46.744Z,21.69
2018-06-04T23:28:15.849Z,21.65
2018-06-04T23:30:44.688Z,21.66
2018-06-04T23:33:13.571Z,21.64
2018-06-04T23:35:42.932Z,21.59
2018-06-04T23:38:11.982Z,21.56
2018-06-04T23:40:40.889Z,21.49
2018-06-04T23:43:10.479Z,21.48
2018-06-04T23:45:39.620Z,21.36
2018-06-04T23:48:08.663Z,21.35
2018-06-04T23:50:38.520Z,21.32
2018-06-04T23:53:07.372Z,21.19
2018-06-04T23:55:36.322Z,21.13
2018-06-04T23:58:05.979Z,21.08
